createdAt,value
2022-10-23T00:01:40.792Z,3.67
2022-10-23T00:04:14.247Z,4.38
2022-10-23T00:06:42.103Z,5.10
2022-10-23T00:09:12.529Z,5.32
2022-10-23T00:11:41.365Z,7.30
2022-10-23T00:14:09.198Z,3.78
2022-10-23T00:16:36.782Z,5.40
2022-10-23T00:19:04.615Z,5.22
2022-10-23T00:21:32.174Z,4.10
2022-10-23T00:23:59.795Z,5.53
2022-10-23T00:26:27.615Z,4.63
2022-10-23T00:28:55.770Z,4.97
2022-10-23T00:31:24.354Z,5.32
2022-10-23T00:33:52.703Z,4.32
2022-10-23T00:36:21.377Z,4.88
2022-10-23T00:38:49.557Z,5.50
2022-10-23T00:41:23.349Z,4.47
2022-10-23T00:43:59.423Z,5.30
2022-10-23T00:46:27.213Z,7.45
2022-10-23T00:48:54.779Z,4.68
2022-10-23T00:51:22.609Z,5.38
2022-10-23T00:54:01.401Z,4.75
2022-10-23T00:56:44.663Z,8.90
2022-10-23T00:59:12.142Z,5.82
2022-10-23T01:01:39.616Z,6.38
2022-10-23T01:04:08.196Z,4.88
2022-10-23T01:07:05.880Z,6.70
2022-10-23T01:09:39.101Z,5.10
2022-10-23T01:12:26.252Z,6.82
2022-10-23T01:15:21.824Z,5.78
2022-10-23T01:18:07.794Z,5.13
2022-10-23T01:20:45.902Z,5.78
2022-10-23T01:23:34.852Z,5.28
2022-10-23T01:26:37.889Z,4.63
2022-10-23T01:29:27.815Z,5.78
2022-10-23T01:32:04.332Z,5.95
2022-10-23T01:34:58.195Z,5.80
2022-10-23T01:37:39.463Z,5.00
2022-10-23T01:40:13.427Z,5.93
2022-10-23T01:42:46.266Z,4.50
2022-10-23T01:45:24.922Z,4.55
2022-10-23T01:47:54.478Z,5.88
2022-10-23T01:50:24.516Z,5.07
2022-10-23T01:52:51.998Z,5.78
2022-10-23T01:55:20.568Z,5.65
2022-10-23T01:57:50.304Z,5.30
2022-10-23T02:00:19.819Z,6.15
2022-10-23T02:02:50.084Z,4.90
2022-10-23T02:05:25.070Z,4.88
2022-10-23T02:07:53.879Z,6.22
2022-10-23T02:10:23.182Z,5.43
2022-10-23T02:13:14.458Z,4.70
2022-10-23T02:15:58.680Z,4.75
2022-10-23T02:18:45.439Z,4.38
2022-10-23T02:21:15.461Z,5.47
2022-10-23T02:24:03.267Z,5.45
2022-10-23T02:26:40.379Z,5.75
2022-10-23T02:29:33.947Z,4.38
2022-10-23T02:32:02.101Z,3.38
2022-10-23T02:34:29.451Z,4.95
2022-10-23T02:36:57.357Z,4.07
2022-10-23T02:39:27.982Z,7.03
2022-10-23T02:42:04.619Z,4.18
2022-10-23T02:44:59.366Z,5.03
2022-10-23T02:47:54.551Z,3.95
2022-10-23T02:50:48.707Z,3.53
2022-10-23T02:53:18.113Z,4.45
2022-10-23T02:56:13.805Z,4.43
2022-10-23T02:58:54.805Z,3.47
2022-10-23T03:01:27.359Z,3.88
2022-10-23T03:04:01.764Z,4.30
2022-10-23T03:06:29.009Z,4.82
2022-10-23T03:09:14.182Z,3.88
2022-10-23T03:11:41.439Z,5.05
2022-10-23T03:14:08.691Z,4.63
2022-10-23T03:16:35.944Z,5.43
2022-10-23T03:19:03.379Z,4.55
2022-10-23T03:21:30.767Z,4.07
2022-10-23T03:23:58.061Z,8.13
2022-10-23T03:26:25.356Z,3.88
2022-10-23T03:28:52.552Z,5.20
2022-10-23T03:31:20.163Z,3.42
2022-10-23T03:33:47.358Z,5.88
2022-10-23T03:36:14.591Z,3.60
2022-10-23T03:38:41.901Z,3.30
2022-10-23T03:41:09.143Z,3.67
2022-10-23T03:43:36.392Z,5.65
2022-10-23T03:46:08.989Z,4.25
2022-10-23T03:48:39.263Z,3.72
2022-10-23T03:51:06.836Z,4.00
2022-10-23T03:53:34.697Z,7.35
2022-10-23T03:56:02.003Z,4.32
2022-10-23T03:58:29.447Z,4.15
2022-10-23T04:00:56.763Z,3.33
2022-10-23T04:03:24.321Z,3.80
2022-10-23T04:05:52.329Z,5.20
2022-10-23T04:08:20.329Z,4.93
2022-10-23T04:10:47.678Z,4.07
2022-10-23T04:13:14.914Z,5.13
2022-10-23T04:15:47.828Z,4.88
2022-10-23T04:18:15.054Z,4.05
2022-10-23T04:20:42.294Z,4.40
2022-10-23T04:23:09.637Z,4.72
2022-10-23T04:25:36.890Z,4.63
2022-10-23T04:28:04.187Z,4.65
2022-10-23T04:30:31.408Z,5.68
2022-10-23T04:32:58.694Z,3.75
2022-10-23T04:35:26.072Z,3.70
2022-10-23T04:37:53.301Z,3.38
2022-10-23T04:40:20.562Z,3.95
2022-10-23T04:42:47.789Z,4.03
2022-10-23T04:45:15.060Z,2.90
2022-10-23T04:47:42.329Z,4.45
2022-10-23T04:50:09.650Z,4.15
2022-10-23T04:52:36.903Z,4.40
2022-10-23T04:55:04.544Z,4.35
2022-10-23T04:57:31.853Z,3.10
2022-10-23T04:59:59.131Z,3.95
2022-10-23T05:02:27.667Z,4.28
2022-10-23T05:04:54.859Z,3.63
2022-10-23T05:09:54.203Z,4.32
2022-10-23T05:12:21.479Z,3.75
2022-10-23T05:14:48.691Z,4.22
2022-10-23T05:17:23.873Z,3.40
2022-10-23T05:19:57.806Z,3.90
2022-10-23T05:22:30.079Z,4.15
2022-10-23T05:24:57.688Z,4.47
2022-10-23T05:27:25.110Z,3.40
2022-10-23T05:29:52.339Z,3.60
2022-10-23T05:34:52.418Z,3.35
2022-10-23T05:37:20.057Z,4.03
2022-10-23T05:39:47.314Z,3.22
2022-10-23T05:42:14.590Z,4.95
2022-10-23T05:44:41.909Z,3.92
2022-10-23T05:47:09.486Z,3.53
2022-10-23T05:49:36.773Z,4.15
2022-10-23T05:52:04.026Z,3.20
2022-10-23T05:54:31.250Z,4.35
2022-10-23T05:56:58.463Z,4.93
2022-10-23T05:59:25.725Z,4.10
2022-10-23T06:01:52.982Z,4.35
2022-10-23T06:04:20.347Z,3.42
2022-10-23T06:06:47.801Z,3.50
2022-10-23T06:09:16.098Z,4.03
2022-10-23T06:11:43.632Z,4.00
2022-10-23T06:14:11.224Z,3.92
2022-10-23T06:16:38.470Z,3.17
2022-10-23T06:19:05.727Z,4.05
2022-10-23T06:21:36.112Z,3.30
2022-10-23T06:24:03.631Z,3.63
2022-10-23T06:26:30.905Z,4.15
2022-10-23T06:28:58.460Z,3.20
2022-10-23T06:31:27.771Z,3.15
2022-10-23T06:33:56.630Z,3.85
2022-10-23T06:36:24.990Z,3.67
2022-10-23T06:38:52.448Z,3.80
2022-10-23T06:41:22.067Z,4.00
2022-10-23T06:43:51.481Z,3.35
2022-10-23T06:46:19.458Z,2.83
2022-10-23T06:48:46.866Z,3.78
2022-10-23T06:51:17.122Z,3.28
2022-10-23T06:53:45.253Z,3.40
2022-10-23T06:56:13.171Z,4.07
2022-10-23T06:58:41.153Z,3.60
2022-10-23T07:01:11.808Z,3.90
2022-10-23T07:03:39.561Z,3.85
2022-10-23T07:06:08.252Z,3.20
2022-10-23T07:08:35.975Z,3.45
2022-10-23T07:11:05.131Z,2.97
2022-10-23T07:13:33.277Z,3.08
2022-10-23T07:16:08.968Z,4.22
2022-10-23T07:18:36.208Z,3.58
2022-10-23T07:21:03.556Z,3.33
2022-10-23T07:23:30.763Z,4.15
2022-10-23T07:26:17.045Z,3.65
2022-10-23T07:28:46.571Z,3.50
2022-10-23T07:31:13.997Z,3.60
2022-10-23T07:33:41.421Z,3.25
2022-10-23T07:36:09.473Z,3.83
2022-10-23T07:38:36.992Z,3.38
2022-10-23T07:41:06.838Z,3.60
2022-10-23T07:43:36.362Z,3.22
2022-10-23T07:46:03.878Z,4.00
2022-10-23T07:48:31.179Z,3.03
2022-10-23T07:51:08.001Z,3.40
2022-10-23T07:53:36.373Z,3.97
2022-10-23T07:56:12.139Z,3.30
2022-10-23T07:58:39.498Z,3.22
2022-10-23T08:01:24.294Z,3.17
2022-10-23T08:03:51.535Z,3.80
2022-10-23T08:06:18.738Z,3.40
2022-10-23T08:11:24.849Z,3.58
2022-10-23T08:13:54.038Z,4.00
2022-10-23T08:16:22.439Z,3.22
2022-10-23T08:18:50.237Z,3.22
2022-10-23T08:21:18.197Z,3.08
2022-10-23T08:23:45.879Z,6.50
2022-10-23T08:26:13.138Z,3.47
2022-10-23T08:28:40.419Z,4.07
2022-10-23T08:31:16.580Z,3.60
2022-10-23T08:33:44.350Z,4.65
2022-10-23T08:36:26.839Z,3.25
2022-10-23T08:38:56.343Z,3.45
2022-10-23T08:41:31.827Z,4.53
2022-10-23T08:44:20.475Z,5.18
2022-10-23T08:46:59.202Z,5.57
2022-10-23T08:49:43.125Z,3.65
2022-10-23T08:52:35.456Z,3.60
2022-10-23T08:55:23.942Z,3.88
2022-10-23T08:58:00.535Z,4.22
2022-10-23T09:00:29.311Z,4.45
2022-10-23T09:02:57.050Z,6.88
2022-10-23T09:05:27.374Z,5.90
2022-10-23T09:08:13.281Z,5.63
2022-10-23T09:11:01.961Z,3.63
2022-10-23T09:13:54.006Z,7.28
2022-10-23T09:16:59.520Z,7.85
2022-10-23T09:19:29.349Z,8.70
2022-10-23T09:21:57.751Z,7.65
2022-10-23T09:24:28.434Z,6.03
2022-10-23T09:26:55.688Z,5.57
2022-10-23T09:29:35.892Z,7.28
2022-10-23T09:32:06.035Z,7.57
2022-10-23T09:34:34.921Z,8.18
2022-10-23T09:37:17.289Z,7.57
2022-10-23T09:39:44.587Z,6.55
2022-10-23T09:42:30.074Z,9.18
2022-10-23T09:44:57.555Z,9.40
2022-10-23T09:47:26.190Z,9.15
2022-10-23T09:49:56.365Z,12.00
2022-10-23T09:52:37.440Z,7.57
2022-10-23T09:55:21.226Z,6.75
2022-10-23T09:57:49.424Z,10.27
2022-10-23T10:00:22.181Z,6.18
2022-10-23T10:03:06.980Z,9.93
2022-10-23T10:05:39.531Z,9.00
2022-10-23T10:08:20.711Z,8.77
2022-10-23T10:11:14.802Z,8.68
2022-10-23T10:14:03.537Z,7.88
2022-10-23T10:16:56.394Z,6.47
2022-10-23T10:19:23.558Z,10.23
2022-10-23T10:22:25.238Z,9.48
2022-10-23T10:25:09.494Z,8.55
2022-10-23T10:27:56.646Z,8.70
2022-10-23T10:30:25.449Z,7.05
2022-10-23T10:32:59.624Z,9.80
2022-10-23T10:35:48.188Z,7.85
2022-10-23T10:38:40.147Z,12.82
2022-10-23T10:41:13.292Z,7.32
2022-10-23T10:43:51.439Z,6.75
2022-10-23T10:46:23.940Z,6.32
2022-10-23T10:49:07.249Z,6.78
2022-10-23T10:52:09.396Z,7.93
2022-10-23T10:54:48.278Z,6.15
2022-10-23T10:57:28.133Z,6.13
2022-10-23T11:00:00.088Z,9.77
2022-10-23T11:02:29.058Z,6.90
2022-10-23T11:05:05.209Z,7.38
2022-10-23T11:07:41.443Z,8.20
2022-10-23T11:10:19.426Z,7.10
2022-10-23T11:12:48.277Z,7.93
2022-10-23T11:15:27.911Z,7.70
2022-10-23T11:17:59.574Z,8.02
2022-10-23T11:20:53.614Z,10.13
2022-10-23T11:23:46.544Z,13.07
2022-10-23T11:26:33.851Z,14.65
2022-10-23T11:29:32.586Z,9.60
2022-10-23T11:32:37.302Z,16.67
2022-10-23T11:35:32.030Z,16.37
2022-10-23T11:38:07.501Z,18.92
2022-10-23T11:40:35.110Z,14.48
2022-10-23T11:43:02.377Z,10.50
2022-10-23T11:45:40.777Z,11.82
2022-10-23T11:48:21.381Z,15.20
2022-10-23T11:50:49.442Z,11.43
2022-10-23T11:53:31.568Z,16.33
2022-10-23T11:56:14.708Z,13.95
2022-10-23T11:58:49.858Z,10.88
2022-10-23T12:01:45.493Z,10.75
2022-10-23T12:04:15.772Z,13.38
2022-10-23T12:06:51.247Z,11.38
2022-10-23T12:09:44.547Z,12.85
2022-10-23T12:12:11.722Z,10.98
2022-10-23T12:14:43.503Z,11.52
2022-10-23T12:17:38.613Z,13.73
2022-10-23T12:20:08.727Z,11.35
2022-10-23T12:22:45.061Z,9.38
2022-10-23T12:25:34.243Z,15.32
2022-10-23T12:28:25.882Z,13.65
2022-10-23T12:31:23.960Z,11.70
2022-10-23T12:34:12.611Z,11.60
2022-10-23T12:36:59.430Z,10.48
2022-10-23T12:39:51.791Z,12.63
2022-10-23T12:42:28.302Z,15.57
2022-10-23T12:44:59.258Z,13.38
2022-10-23T12:47:27.067Z,13.70
2022-10-23T12:49:54.445Z,14.45
2022-10-23T12:52:24.522Z,13.52
2022-10-23T12:54:52.155Z,17.77
2022-10-23T12:57:23.756Z,59.90
2022-10-23T12:59:59.050Z,63.70
2022-10-23T13:02:29.750Z,57.28
2022-10-23T13:05:03.729Z,54.78
2022-10-23T13:07:34.404Z,53.83
2022-10-23T13:10:02.657Z,47.30
2022-10-23T13:12:39.125Z,54.03
2022-10-23T13:15:10.846Z,47.85
2022-10-23T13:17:44.339Z,46.60
2022-10-23T13:20:17.928Z,45.10
2022-10-23T13:22:50.676Z,53.50
2022-10-23T13:25:30.161Z,49.05
2022-10-23T13:28:12.897Z,36.33
2022-10-23T13:30:48.096Z,37.50
2022-10-23T13:33:23.584Z,41.70
2022-10-23T13:36:16.593Z,40.80
2022-10-23T13:38:48.101Z,35.60
2022-10-23T13:41:18.504Z,33.72
2022-10-23T13:43:48.174Z,35.67
2022-10-23T13:46:21.233Z,32.83
2022-10-23T13:48:48.843Z,37.83
2022-10-23T13:51:25.299Z,34.83
2022-10-23T13:53:53.503Z,35.90
2022-10-23T13:56:23.288Z,35.58
2022-10-23T13:58:50.590Z,33.47
2022-10-23T14:01:28.383Z,35.35
2022-10-23T14:03:57.073Z,37.33
2022-10-23T14:06:24.713Z,37.10
2022-10-23T14:08:52.340Z,41.33
2022-10-23T14:11:20.775Z,36.00
2022-10-23T14:13:48.480Z,40.33
2022-10-23T14:16:18.502Z,37.30
2022-10-23T14:18:45.783Z,38.58
2022-10-23T14:21:16.395Z,41.50
2022-10-23T14:23:43.637Z,47.28
2022-10-23T14:26:14.235Z,44.17
2022-10-23T14:28:42.012Z,46.33
2022-10-23T14:31:15.308Z,48.10
2022-10-23T14:33:43.535Z,46.30
2022-10-23T14:36:11.476Z,45.80
2022-10-23T14:38:39.030Z,45.97
2022-10-23T14:41:17.495Z,47.95
2022-10-23T14:43:45.077Z,49.35
2022-10-23T14:46:14.540Z,46.95
2022-10-23T14:48:46.060Z,48.65
2022-10-23T14:51:20.837Z,43.22
2022-10-23T14:53:49.169Z,51.13
2022-10-23T14:56:16.790Z,45.65
2022-10-23T14:58:44.050Z,48.90
2022-10-23T15:01:11.439Z,43.60
2022-10-23T15:03:38.887Z,43.33
2022-10-23T15:06:07.967Z,41.00
2022-10-23T15:08:35.988Z,42.42
2022-10-23T15:11:06.693Z,43.22
2022-10-23T15:13:36.204Z,45.10
2022-10-23T15:16:05.705Z,42.55
2022-10-23T15:18:33.354Z,37.55
2022-10-23T15:21:01.024Z,38.58
2022-10-23T15:23:28.334Z,42.53
2022-10-23T15:25:59.955Z,40.05
2022-10-23T15:28:28.485Z,41.47
2022-10-23T15:30:55.832Z,43.22
2022-10-23T15:44:29.155Z,42.33
2022-10-23T15:46:59.949Z,42.95
2022-10-23T15:49:31.877Z,40.63
2022-10-23T15:51:59.348Z,40.10
2022-10-23T15:54:29.263Z,40.75
2022-10-23T15:56:59.539Z,41.88
2022-10-23T15:59:28.137Z,42.55
2022-10-23T16:01:55.841Z,42.10
2022-10-23T16:04:23.728Z,40.20
2022-10-23T16:06:51.077Z,43.92
2022-10-23T16:09:18.354Z,51.35
2022-10-23T16:11:45.629Z,52.40
2022-10-23T16:14:15.288Z,54.78
2022-10-23T16:16:43.256Z,64.70
2022-10-23T16:19:11.297Z,61.33
2022-10-23T16:21:38.913Z,55.83
2022-10-23T16:24:07.671Z,54.92
2022-10-23T16:26:35.961Z,52.42
2022-10-23T16:29:06.307Z,68.30
2022-10-23T16:31:34.510Z,68.60
2022-10-23T16:34:04.647Z,62.90
2022-10-23T16:36:32.695Z,63.10
2022-10-23T16:39:01.593Z,66.95
2022-10-23T16:41:28.881Z,67.13
2022-10-23T16:43:56.309Z,73.40
2022-10-23T16:46:23.780Z,67.13
2022-10-23T16:48:51.683Z,67.00
2022-10-23T16:51:22.273Z,65.30
2022-10-23T16:53:50.167Z,60.72
2022-10-23T16:56:21.401Z,57.60
2022-10-23T16:58:48.689Z,60.42
2022-10-23T17:01:18.803Z,60.45
2022-10-23T17:03:49.102Z,58.63
2022-10-23T17:06:19.715Z,55.30
2022-10-23T17:08:47.357Z,56.35
2022-10-23T17:11:18.383Z,50.90
2022-10-23T17:13:49.124Z,55.58
2022-10-23T17:16:21.849Z,53.65
2022-10-23T17:18:49.621Z,50.25
2022-10-23T17:21:18.627Z,48.22
2022-10-23T17:23:46.358Z,54.95
2022-10-23T17:26:17.703Z,43.83
2022-10-23T17:28:45.363Z,47.63
2022-10-23T17:31:17.779Z,43.65
2022-10-23T17:33:46.426Z,46.92
2022-10-23T17:36:15.832Z,61.55
2022-10-23T17:38:43.727Z,50.22
2022-10-23T17:41:13.136Z,46.65
2022-10-23T17:43:41.422Z,52.25
2022-10-23T17:46:10.454Z,51.85
2022-10-23T17:48:39.641Z,51.83
2022-10-23T17:51:27.100Z,44.05
2022-10-23T17:53:56.700Z,40.22
2022-10-23T17:56:27.291Z,39.70
2022-10-23T17:58:58.803Z,45.25
2022-10-23T18:01:28.551Z,40.35
2022-10-23T18:04:04.070Z,40.30
2022-10-23T18:06:40.169Z,39.88
2022-10-23T18:09:07.856Z,34.05
2022-10-23T18:11:38.225Z,35.33
2022-10-23T18:14:06.419Z,35.85
2022-10-23T18:16:35.108Z,38.95
2022-10-23T18:19:02.815Z,33.30
2022-10-23T18:21:30.341Z,37.58
2022-10-23T18:24:00.932Z,35.03
2022-10-23T18:26:30.999Z,48.08
2022-10-23T18:28:59.689Z,33.67
2022-10-23T18:31:30.266Z,30.17
2022-10-23T18:34:01.469Z,31.77
2022-10-23T18:36:33.576Z,30.25
2022-10-23T18:39:01.371Z,33.10
2022-10-23T18:41:34.169Z,32.28
2022-10-23T18:44:01.563Z,29.80
2022-10-23T18:46:28.997Z,27.88
2022-10-23T18:48:56.336Z,31.42
2022-10-23T18:51:27.536Z,27.15
2022-10-23T18:53:55.343Z,22.80
2022-10-23T18:56:25.970Z,27.75
2022-10-23T18:58:55.920Z,29.35
2022-10-23T19:01:24.435Z,25.85
2022-10-23T19:03:51.933Z,24.35
2022-10-23T19:06:20.548Z,23.38
2022-10-23T19:08:48.014Z,22.95
2022-10-23T19:11:16.802Z,26.30
2022-10-23T19:13:44.504Z,21.02
2022-10-23T19:16:27.990Z,19.05
2022-10-23T19:19:05.847Z,26.30
2022-10-23T19:21:37.908Z,24.42
2022-10-23T19:24:10.893Z,22.83
2022-10-23T19:26:40.726Z,20.15
2022-10-23T19:29:11.387Z,18.38
2022-10-23T19:31:39.025Z,19.13
2022-10-23T19:34:06.329Z,16.80
2022-10-23T19:36:33.667Z,15.93
2022-10-23T19:39:00.944Z,20.38
2022-10-23T19:41:28.183Z,17.20
2022-10-23T19:43:55.425Z,18.23
2022-10-23T19:46:22.815Z,16.35
2022-10-23T19:48:50.066Z,17.02
2022-10-23T19:51:17.303Z,15.98
2022-10-23T19:53:44.641Z,15.55
2022-10-23T19:56:13.112Z,15.85
2022-10-23T19:58:41.008Z,13.13
2022-10-23T20:01:14.393Z,17.05
2022-10-23T20:03:44.587Z,17.80
2022-10-23T20:06:14.493Z,20.25
2022-10-23T20:08:42.151Z,15.52
2022-10-23T20:11:17.954Z,15.10
2022-10-23T20:13:48.899Z,15.75
2022-10-23T20:16:34.926Z,13.43
2022-10-23T20:19:09.365Z,14.90
2022-10-23T20:21:37.789Z,13.65
2022-10-23T20:24:06.024Z,20.30
2022-10-23T20:26:33.536Z,15.23
2022-10-23T20:29:00.803Z,17.25
2022-10-23T20:31:28.828Z,12.20
2022-10-23T20:33:57.066Z,14.27
2022-10-23T20:36:31.694Z,11.63
2022-10-23T20:39:02.552Z,13.00
2022-10-23T20:41:33.076Z,17.20
2022-10-23T20:44:00.799Z,15.73
2022-10-23T20:46:28.068Z,11.48
2022-10-23T20:48:55.344Z,12.38
2022-10-23T20:51:24.636Z,12.40
2022-10-23T20:53:53.290Z,15.27
2022-10-23T20:56:31.005Z,14.40
2022-10-23T20:59:03.683Z,15.18
2022-10-23T21:01:31.776Z,19.13
2022-10-23T21:04:00.785Z,12.07
2022-10-23T21:06:45.378Z,14.93
2022-10-23T21:09:17.224Z,11.90
2022-10-23T21:11:44.489Z,12.55
2022-10-23T21:14:11.828Z,8.32
2022-10-23T21:16:40.994Z,11.90
2022-10-23T21:19:11.381Z,9.07
2022-10-23T21:21:39.032Z,8.55
2022-10-23T21:24:09.089Z,12.05
2022-10-23T21:26:36.905Z,8.32
2022-10-23T21:29:18.085Z,9.82
2022-10-23T21:31:56.892Z,10.48
2022-10-23T21:34:25.041Z,8.27
2022-10-23T21:37:13.548Z,7.45
2022-10-23T21:39:40.916Z,10.50
2022-10-23T21:42:08.530Z,10.05
2022-10-23T21:44:35.820Z,11.48
2022-10-23T21:47:03.220Z,9.07
2022-10-23T21:49:30.508Z,7.85
2022-10-23T21:51:57.746Z,9.18
2022-10-23T21:54:25.014Z,8.43
2022-10-23T21:56:55.989Z,7.28
2022-10-23T21:59:28.808Z,6.53
2022-10-23T22:01:59.298Z,7.90
2022-10-23T22:04:26.736Z,5.70
2022-10-23T22:06:54.018Z,8.77
2022-10-23T22:09:21.957Z,5.90
2022-10-23T22:11:50.441Z,7.93
2022-10-23T22:14:17.866Z,4.20
2022-10-23T22:16:45.138Z,5.32
2022-10-23T22:19:14.516Z,7.03
2022-10-23T22:21:42.497Z,5.70
2022-10-23T22:24:10.870Z,5.88
2022-10-23T22:26:44.475Z,4.70
2022-10-23T22:29:15.172Z,5.67
2022-10-23T22:31:45.578Z,4.72
2022-10-23T22:37:01.381Z,6.10
2022-10-23T22:39:28.605Z,5.53
2022-10-23T22:41:55.927Z,6.25
2022-10-23T22:44:23.212Z,6.03
2022-10-23T22:46:50.432Z,4.80
2022-10-23T22:49:17.732Z,5.10
2022-10-23T22:51:44.868Z,5.32
2022-10-23T22:54:12.132Z,6.47
2022-10-23T22:56:39.395Z,5.63
2022-10-23T22:59:06.676Z,4.82
2022-10-23T23:02:14.662Z,6.60
2022-10-23T23:04:41.942Z,5.05
2022-10-23T23:07:11.639Z,5.32
2022-10-23T23:09:41.430Z,5.85
2022-10-23T23:12:11.399Z,4.85
2022-10-23T23:14:39.557Z,4.30
2022-10-23T23:17:08.235Z,4.97
2022-10-23T23:19:35.897Z,4.38
2022-10-23T23:22:03.182Z,4.72
2022-10-23T23:24:30.552Z,5.93
2022-10-23T23:26:57.788Z,6.60
2022-10-23T23:29:25.187Z,6.25
2022-10-23T23:31:52.402Z,5.22
2022-10-23T23:34:19.636Z,6.22
2022-10-23T23:38:01.849Z,6.30
2022-10-23T23:40:29.121Z,6.05
2022-10-23T23:42:56.420Z,5.60
2022-10-23T23:45:23.789Z,6.22
2022-10-23T23:47:50.996Z,6.30
2022-10-23T23:50:18.419Z,7.07
2022-10-23T23:52:45.875Z,6.72
2022-10-23T23:55:13.668Z,7.80
2022-10-23T23:57:41.003Z,9.35
